sensor_id;sensor_type;location;lat;lon;timestamp;temperature;humidity
6377;DHT22;3221;48.858;10.128;2024-03-23T00:53:52;9.40;99.90
6377;DHT22;3221;48.858;10.128;2024-03-23T00:56:18;9.40;99.90
6377;DHT22;3221;48.858;10.128;2024-03-23T00:58:44;9.20;99.90
6377;DHT22;3221;48.858;10.128;2024-03-23T01:01:10;9.10;99.90
6377;DHT22;3221;48.858;10.128;2024-03-23T01:03:36;9.30;99.90
6377;DHT22;3221;48.858;10.128;2024-03-23T01:06:02;9.40;99.90
6377;DHT22;3221;48.858;10.128;2024-03-23T01:08:29;9.20;99.90
6377;DHT22;3221;48.858;10.128;2024-03-23T01:13:22;9.30;99.90
6377;DHT22;3221;48.858;10.128;2024-03-23T01:15:49;9.30;99.90
6377;DHT22;3221;48.858;10.128;2024-03-23T01:18:15;9.50;99.90
6377;DHT22;3221;48.858;10.128;2024-03-23T01:20:41;9.50;99.90
6377;DHT22;3221;48.858;10.128;2024-03-23T01:23:07;9.50;99.90
6377;DHT22;3221;48.858;10.128;2024-03-23T01:25:33;9.40;99.90
6377;DHT22;3221;48.858;10.128;2024-03-23T01:27:59;9.40;99.90
6377;DHT22;3221;48.858;10.128;2024-03-23T01:30:25;9.40;99.90
6377;DHT22;3221;48.858;10.128;2024-03-23T01:32:51;9.60;99.90
6377;DHT22;3221;48.858;10.128;2024-03-23T01:35:17;10.00;99.90
6377;DHT22;3221;48.858;10.128;2024-03-23T01:37:43;9.90;99.90
6377;DHT22;3221;48.858;10.128;2024-03-23T01:40:09;10.00;99.90
6377;DHT22;3221;48.858;10.128;2024-03-23T01:42:35;10.00;99.90
6377;DHT22;3221;48.858;10.128;2024-03-23T01:45:01;10.10;99.90
6377;DHT22;3221;48.858;10.128;2024-03-23T01:47:27;10.20;99.90
6377;DHT22;3221;48.858;10.128;2024-03-23T01:49:53;10.00;99.90
6377;DHT22;3221;48.858;10.128;2024-03-23T01:52:19;9.80;99.90
6377;DHT22;3221;48.858;10.128;2024-03-23T01:54:45;9.80;99.90
6377;DHT22;3221;48.858;10.128;2024-03-23T01:57:11;9.90;99.90
6377;DHT22;3221;48.858;10.128;2024-03-23T01:59:38;9.80;99.90
6377;DHT22;3221;48.858;10.128;2024-03-23T02:02:06;9.80;99.90
6377;DHT22;3221;48.858;10.128;2024-03-23T02:04:32;9.70;99.90
6377;DHT22;3221;48.858;10.128;2024-03-23T02:06:57;9.60;99.90
6377;DHT22;3221;48.858;10.128;2024-03-23T02:09:23;9.70;99.90
6377;DHT22;3221;48.858;10.128;2024-03-23T02:11:50;9.70;99.90
6377;DHT22;3221;48.858;10.128;2024-03-23T02:14:16;9.60;99.90
6377;DHT22;3221;48.858;10.128;2024-03-23T02:16:43;9.60;99.90
6377;DHT22;3221;48.858;10.128;2024-03-23T02:19:09;9.70;99.90
6377;DHT22;3221;48.858;10.128;2024-03-23T02:21:34;9.70;99.90
6377;DHT22;3221;48.858;10.128;2024-03-23T02:24:00;9.80;99.90
6377;DHT22;3221;48.858;10.128;2024-03-23T02:26:26;9.80;99.90
6377;DHT22;3221;48.858;10.128;2024-03-23T02:28:52;9.70;99.90
6377;DHT22;3221;48.858;10.128;2024-03-23T02:31:18;9.80;99.90
6377;DHT22;3221;48.858;10.128;2024-03-23T02:33:44;9.90;99.90
6377;DHT22;3221;48.858;10.128;2024-03-23T02:36:10;9.90;99.90
6377;DHT22;3221;48.858;10.128;2024-03-23T02:38:35;9.80;99.90
6377;DHT22;3221;48.858;10.128;2024-03-23T02:41:04;9.90;99.90
6377;DHT22;3221;48.858;10.128;2024-03-23T02:43:31;9.90;99.90
6377;DHT22;3221;48.858;10.128;2024-03-23T02:45:57;9.90;99.90
6377;DHT22;3221;48.858;10.128;2024-03-23T02:48:23;10.00;99.90
6377;DHT22;3221;48.858;10.128;2024-03-23T02:50:49;9.70;99.90
6377;DHT22;3221;48.858;10.128;2024-03-23T02:53:16;9.50;99.90
6377;DHT22;3221;48.858;10.128;2024-03-23T02:55:43;9.70;99.90
6377;DHT22;3221;48.858;10.128;2024-03-23T02:58:09;9.80;99.90
6377;DHT22;3221;48.858;10.128;2024-03-23T03:00:35;9.80;99.90
6377;DHT22;3221;48.858;10.128;2024-03-23T03:03:01;9.80;99.90
6377;DHT22;3221;48.858;10.128;2024-03-23T03:05:26;9.90;99.90
6377;DHT22;3221;48.858;10.128;2024-03-23T03:07:52;9.90;99.90
6377;DHT22;3221;48.858;10.128;2024-03-23T03:10:18;9.80;99.90
6377;DHT22;3221;48.858;10.128;2024-03-23T03:12:44;9.80;99.90
6377;DHT22;3221;48.858;10.128;2024-03-23T03:15:10;9.70;99.90
6377;DHT22;3221;48.858;10.128;2024-03-23T03:17:36;9.90;99.90
6377;DHT22;3221;48.858;10.128;2024-03-23T03:20:02;9.90;99.90
6377;DHT22;3221;48.858;10.128;2024-03-23T03:22:30;9.80;99.90
6377;DHT22;3221;48.858;10.128;2024-03-23T03:24:56;9.90;99.90
6377;DHT22;3221;48.858;10.128;2024-03-23T03:27:22;9.90;99.90
6377;DHT22;3221;48.858;10.128;2024-03-23T03:29:48;9.90;99.90
6377;DHT22;3221;48.858;10.128;2024-03-23T03:32:14;9.80;99.90
6377;DHT22;3221;48.858;10.128;2024-03-23T03:34:40;9.80;99.90
6377;DHT22;3221;48.858;10.128;2024-03-23T03:37:06;9.70;99.90
6377;DHT22;3221;48.858;10.128;2024-03-23T03:39:32;10.00;99.90
6377;DHT22;3221;48.858;10.128;2024-03-23T03:41:58;9.80;99.90
6377;DHT22;3221;48.858;10.128;2024-03-23T03:44:23;9.80;99.90
6377;DHT22;3221;48.858;10.128;2024-03-23T03:46:49;9.80;99.90
6377;DHT22;3221;48.858;10.128;2024-03-23T03:49:15;9.90;99.90
6377;DHT22;3221;48.858;10.128;2024-03-23T03:51:41;9.80;99.90
6377;DHT22;3221;48.858;10.128;2024-03-23T03:54:07;9.80;99.90
6377;DHT22;3221;48.858;10.128;2024-03-23T03:56:33;9.80;99.90
6377;DHT22;3221;48.858;10.128;2024-03-23T03:58:59;9.90;99.90
6377;DHT22;3221;48.858;10.128;2024-03-23T04:01:25;9.80;99.90
6377;DHT22;3221;48.858;10.128;2024-03-23T04:03:52;9.70;99.90
6377;DHT22;3221;48.858;10.128;2024-03-23T04:06:21;9.80;99.90
6377;DHT22;3221;48.858;10.128;2024-03-23T04:08:47;9.80;99.90
6377;DHT22;3221;48.858;10.128;2024-03-23T04:11:13;9.80;99.90
6377;DHT22;3221;48.858;10.128;2024-03-23T04:13:39;9.80;99.90
6377;DHT22;3221;48.858;10.128;2024-03-23T04:16:07;9.90;99.90
6377;DHT22;3221;48.858;10.128;2024-03-23T04:18:35;9.70;99.90
6377;DHT22;3221;48.858;10.128;2024-03-23T04:21:01;9.70;99.90
6377;DHT22;3221;48.858;10.128;2024-03-23T04:23:27;9.70;99.90
6377;DHT22;3221;48.858;10.128;2024-03-23T04:25:52;9.80;99.90
6377;DHT22;3221;48.858;10.128;2024-03-23T04:28:19;9.90;99.90
6377;DHT22;3221;48.858;10.128;2024-03-23T04:30:45;9.80;99.90
6377;DHT22;3221;48.858;10.128;2024-03-23T04:33:10;9.70;99.90
6377;DHT22;3221;48.858;10.128;2024-03-23T04:35:36;9.70;99.90
6377;DHT22;3221;48.858;10.128;2024-03-23T04:38:02;9.80;99.90
6377;DHT22;3221;48.858;10.128;2024-03-23T04:40:29;9.80;99.90
6377;DHT22;3221;48.858;10.128;2024-03-23T04:42:55;9.80;99.90
6377;DHT22;3221;48.858;10.128;2024-03-23T04:45:20;9.90;99.90
6377;DHT22;3221;48.858;10.128;2024-03-23T04:47:48;10.00;99.90
6377;DHT22;3221;48.858;10.128;2024-03-23T04:50:14;9.90;99.90
6377;DHT22;3221;48.858;10.128;2024-03-23T04:52:40;9.80;99.90
6377;DHT22;3221;48.858;10.128;2024-03-23T04:55:09;9.80;99.90
6377;DHT22;3221;48.858;10.128;2024-03-23T04:57:34;9.70;99.90
6377;DHT22;3221;48.858;10.128;2024-03-23T05:00:01;9.90;99.90
6377;DHT22;3221;48.858;10.128;2024-03-23T05:02:27;9.70;99.90
6377;DHT22;3221;48.858;10.128;2024-03-23T05:04:53;9.80;99.90
6377;DHT22;3221;48.858;10.128;2024-03-23T05:07:19;9.80;99.90
6377;DHT22;3221;48.858;10.128;2024-03-23T05:09:45;9.80;99.90
6377;DHT22;3221;48.858;10.128;2024-03-23T05:12:11;9.80;99.90
6377;DHT22;3221;48.858;10.128;2024-03-23T05:14:37;9.70;99.90
6377;DHT22;3221;48.858;10.128;2024-03-23T05:17:03;9.90;99.90
6377;DHT22;3221;48.858;10.128;2024-03-23T05:19:30;9.80;99.90
6377;DHT22;3221;48.858;10.128;2024-03-23T05:21:56;9.80;99.90
6377;DHT22;3221;48.858;10.128;2024-03-23T05:24:21;9.80;99.90
6377;DHT22;3221;48.858;10.128;2024-03-23T05:26:48;9.90;99.90
6377;DHT22;3221;48.858;10.128;2024-03-23T05:29:13;9.90;99.90
6377;DHT22;3221;48.858;10.128;2024-03-23T05:31:39;9.90;99.90
6377;DHT22;3221;48.858;10.128;2024-03-23T05:34:08;9.80;99.90
6377;DHT22;3221;48.858;10.128;2024-03-23T05:36:34;9.80;99.90
6377;DHT22;3221;48.858;10.128;2024-03-23T05:39:02;9.80;99.90
6377;DHT22;3221;48.858;10.128;2024-03-23T05:41:27;9.80;99.90
6377;DHT22;3221;48.858;10.128;2024-03-23T05:43:53;9.70;99.90
6377;DHT22;3221;48.858;10.128;2024-03-23T05:46:19;9.70;99.90
6377;DHT22;3221;48.858;10.128;2024-03-23T05:48:45;9.60;99.90
6377;DHT22;3221;48.858;10.128;2024-03-23T05:51:11;9.70;99.90
6377;DHT22;3221;48.858;10.128;2024-03-23T05:53:38;9.80;99.90
6377;DHT22;3221;48.858;10.128;2024-03-23T05:56:04;9.70;99.90
6377;DHT22;3221;48.858;10.128;2024-03-23T05:58:31;9.60;99.90
6377;DHT22;3221;48.858;10.128;2024-03-23T06:00:58;9.70;99.90
6377;DHT22;3221;48.858;10.128;2024-03-23T06:03:25;9.50;99.90
6377;DHT22;3221;48.858;10.128;2024-03-23T06:05:51;9.50;99.90
6377;DHT22;3221;48.858;10.128;2024-03-23T06:08:18;9.60;99.90
6377;DHT22;3221;48.858;10.128;2024-03-23T06:10:46;9.60;99.90
6377;DHT22;3221;48.858;10.128;2024-03-23T06:13:12;9.50;99.90
6377;DHT22;3221;48.858;10.128;2024-03-23T06:15:38;9.60;99.90
6377;DHT22;3221;48.858;10.128;2024-03-23T06:18:04;9.50;99.90
6377;DHT22;3221;48.858;10.128;2024-03-23T06:20:30;9.50;99.90
6377;DHT22;3221;48.858;10.128;2024-03-23T06:22:57;9.50;99.90
6377;DHT22;3221;48.858;10.128;2024-03-23T06:25:23;9.50;99.90
6377;DHT22;3221;48.858;10.128;2024-03-23T06:27:49;9.40;99.90
6377;DHT22;3221;48.858;10.128;2024-03-23T06:30:15;9.50;99.90
6377;DHT22;3221;48.858;10.128;2024-03-23T06:32:41;9.50;99.90
6377;DHT22;3221;48.858;10.128;2024-03-23T06:35:08;9.40;99.90
6377;DHT22;3221;48.858;10.128;2024-03-23T06:37:38;9.40;99.90
6377;DHT22;3221;48.858;10.128;2024-03-23T06:40:05;9.40;99.90
6377;DHT22;3221;48.858;10.128;2024-03-23T06:42:35;9.40;99.90
6377;DHT22;3221;48.858;10.128;2024-03-23T06:45:02;9.40;99.90
6377;DHT22;3221;48.858;10.128;2024-03-23T06:47:29;9.30;99.90
6377;DHT22;3221;48.858;10.128;2024-03-23T06:49:55;9.30;99.90
6377;DHT22;3221;48.858;10.128;2024-03-23T06:52:21;9.40;99.90
6377;DHT22;3221;48.858;10.128;2024-03-23T06:54:46;9.30;99.90
6377;DHT22;3221;48.858;10.128;2024-03-23T06:57:12;9.30;99.90
6377;DHT22;3221;48.858;10.128;2024-03-23T06:59:38;9.20;99.90
6377;DHT22;3221;48.858;10.128;2024-03-23T07:02:05;9.20;99.90
6377;DHT22;3221;48.858;10.128;2024-03-23T07:04:34;9.20;99.90
6377;DHT22;3221;48.858;10.128;2024-03-23T07:07:01;9.30;99.90
6377;DHT22;3221;48.858;10.128;2024-03-23T07:09:29;9.10;99.90
6377;DHT22;3221;48.858;10.128;2024-03-23T07:11:56;9.10;99.90
6377;DHT22;3221;48.858;10.128;2024-03-23T07:14:23;9.00;99.90
6377;DHT22;3221;48.858;10.128;2024-03-23T07:16:49;9.00;99.90
6377;DHT22;3221;48.858;10.128;2024-03-23T07:19:16;9.00;99.90
6377;DHT22;3221;48.858;10.128;2024-03-23T07:21:43;9.10;99.90
6377;DHT22;3221;48.858;10.128;2024-03-23T07:24:09;9.00;99.90
6377;DHT22;3221;48.858;10.128;2024-03-23T07:26:35;9.00;99.90
6377;DHT22;3221;48.858;10.128;2024-03-23T07:29:01;9.00;99.90
6377;DHT22;3221;48.858;10.128;2024-03-23T07:31:27;9.00;99.90
6377;DHT22;3221;48.858;10.128;2024-03-23T07:33:54;9.00;99.90
6377;DHT22;3221;48.858;10.128;2024-03-23T07:36:20;9.10;99.90
6377;DHT22;3221;48.858;10.128;2024-03-23T07:38:46;9.00;99.90
6377;DHT22;3221;48.858;10.128;2024-03-23T07:41:18;9.00;99.90
6377;DHT22;3221;48.858;10.128;2024-03-23T07:43:45;9.00;99.90
6377;DHT22;3221;48.858;10.128;2024-03-23T07:46:11;9.00;99.90
6377;DHT22;3221;48.858;10.128;2024-03-23T07:48:38;9.00;99.90
6377;DHT22;3221;48.858;10.128;2024-03-23T07:51:06;8.90;99.90
6377;DHT22;3221;48.858;10.128;2024-03-23T07:53:32;9.00;99.90
6377;DHT22;3221;48.858;10.128;2024-03-23T07:58:26;8.70;99.90
6377;DHT22;3221;48.858;10.128;2024-03-23T08:00:53;8.90;99.90
6377;DHT22;3221;48.858;10.128;2024-03-23T08:03:19;8.80;99.90
6377;DHT22;3221;48.858;10.128;2024-03-23T08:05:45;8.80;99.90
6377;DHT22;3221;48.858;10.128;2024-03-23T08:08:11;8.80;99.90
6377;DHT22;3221;48.858;10.128;2024-03-23T08:10:49;8.70;99.90
6377;DHT22;3221;48.858;10.128;2024-03-23T08:13:15;8.60;99.90
6377;DHT22;3221;48.858;10.128;2024-03-23T08:15:41;8.70;99.90
6377;DHT22;3221;48.858;10.128;2024-03-23T08:18:07;8.70;99.90
6377;DHT22;3221;48.858;10.128;2024-03-23T08:20:33;8.70;99.90
6377;DHT22;3221;48.858;10.128;2024-03-23T08:22:59;8.70;99.90
6377;DHT22;3221;48.858;10.128;2024-03-23T08:25:25;8.60;99.90
6377;DHT22;3221;48.858;10.128;2024-03-23T08:27:51;8.70;99.90
6377;DHT22;3221;48.858;10.128;2024-03-23T08:30:17;8.60;99.90
6377;DHT22;3221;48.858;10.128;2024-03-23T08:32:43;8.60;99.90
6377;DHT22;3221;48.858;10.128;2024-03-23T08:35:08;8.70;99.90
6377;DHT22;3221;48.858;10.128;2024-03-23T08:37:35;8.70;99.90
6377;DHT22;3221;48.858;10.128;2024-03-23T08:40:01;8.60;99.90
6377;DHT22;3221;48.858;10.128;2024-03-23T08:42:27;8.70;99.90
6377;DHT22;3221;48.858;10.128;2024-03-23T08:44:53;8.70;99.90
6377;DHT22;3221;48.858;10.128;2024-03-23T08:47:19;8.50;99.90
6377;DHT22;3221;48.858;10.128;2024-03-23T08:49:45;8.30;99.90
6377;DHT22;3221;48.858;10.128;2024-03-23T08:52:11;8.40;99.90
6377;DHT22;3221;48.858;10.128;2024-03-23T08:54:37;8.40;99.90
6377;DHT22;3221;48.858;10.128;2024-03-23T08:57:03;8.40;99.90
6377;DHT22;3221;48.858;10.128;2024-03-23T08:59:29;8.40;99.90
6377;DHT22;3221;48.858;10.128;2024-03-23T09:01:55;8.40;99.90
6377;DHT22;3221;48.858;10.128;2024-03-23T09:04:21;8.30;99.90
6377;DHT22;3221;48.858;10.128;2024-03-23T09:06:47;8.30;99.90
6377;DHT22;3221;48.858;10.128;2024-03-23T09:09:13;8.30;99.90
6377;DHT22;3221;48.858;10.128;2024-03-23T09:11:39;8.30;99.90
6377;DHT22;3221;48.858;10.128;2024-03-23T09:14:05;8.20;99.90
6377;DHT22;3221;48.858;10.128;2024-03-23T09:16:31;8.30;99.90
6377;DHT22;3221;48.858;10.128;2024-03-23T09:18:56;8.20;99.90
6377;DHT22;3221;48.858;10.128;2024-03-23T09:21:22;8.20;99.90
6377;DHT22;3221;48.858;10.128;2024-03-23T09:23:48;8.10;99.90
6377;DHT22;3221;48.858;10.128;2024-03-23T09:26:15;8.00;99.90
6377;DHT22;3221;48.858;10.128;2024-03-23T09:28:41;8.00;99.90
6377;DHT22;3221;48.858;10.128;2024-03-23T09:31:07;8.00;99.90
6377;DHT22;3221;48.858;10.128;2024-03-23T09:33:34;8.00;99.90
6377;DHT22;3221;48.858;10.128;2024-03-23T09:36:04;7.90;99.90
6377;DHT22;3221;48.858;10.128;2024-03-23T09:38:30;8.00;99.90
6377;DHT22;3221;48.858;10.128;2024-03-23T09:40:57;8.00;99.90
6377;DHT22;3221;48.858;10.128;2024-03-23T09:43:23;8.00;99.90
6377;DHT22;3221;48.858;10.128;2024-03-23T09:45:49;8.10;99.90
6377;DHT22;3221;48.858;10.128;2024-03-23T09:48:15;8.00;99.90
6377;DHT22;3221;48.858;10.128;2024-03-23T09:50:43;8.00;99.90
6377;DHT22;3221;48.858;10.128;2024-03-23T09:53:11;8.00;99.90
6377;DHT22;3221;48.858;10.128;2024-03-23T09:55:38;8.00;99.90
6377;DHT22;3221;48.858;10.128;2024-03-23T09:58:05;7.80;99.90
6377;DHT22;3221;48.858;10.128;2024-03-23T10:00:32;8.00;99.90
6377;DHT22;3221;48.858;10.128;2024-03-23T10:03:01;8.00;99.90
6377;DHT22;3221;48.858;10.128;2024-03-23T10:05:28;7.90;99.90
6377;DHT22;3221;48.858;10.128;2024-03-23T10:07:55;7.90;99.90
6377;DHT22;3221;48.858;10.128;2024-03-23T10:10:21;8.00;99.90
6377;DHT22;3221;48.858;10.128;2024-03-23T10:12:48;7.90;99.90
6377;DHT22;3221;48.858;10.128;2024-03-23T10:15:25;8.00;99.90
6377;DHT22;3221;48.858;10.128;2024-03-23T10:17:51;7.80;99.90
6377;DHT22;3221;48.858;10.128;2024-03-23T10:20:21;8.00;99.90
6377;DHT22;3221;48.858;10.128;2024-03-23T10:22:51;7.90;99.90
6377;DHT22;3221;48.858;10.128;2024-03-23T10:25:24;7.80;99.90
6377;DHT22;3221;48.858;10.128;2024-03-23T10:28:00;7.90;99.90
6377;DHT22;3221;48.858;10.128;2024-03-23T10:30:27;7.90;99.90
6377;DHT22;3221;48.858;10.128;2024-03-23T10:33:12;8.00;99.90
6377;DHT22;3221;48.858;10.128;2024-03-23T10:35:39;8.00;99.90
6377;DHT22;3221;48.858;10.128;2024-03-23T10:38:06;8.00;99.90
6377;DHT22;3221;48.858;10.128;2024-03-23T10:40:36;8.10;99.90
6377;DHT22;3221;48.858;10.128;2024-03-23T10:43:03;8.00;99.90
6377;DHT22;3221;48.858;10.128;2024-03-23T10:45:30;8.00;99.90
6377;DHT22;3221;48.858;10.128;2024-03-23T10:47:56;8.10;99.90
6377;DHT22;3221;48.858;10.128;2024-03-23T10:50:23;8.00;99.90
6377;DHT22;3221;48.858;10.128;2024-03-23T10:52:49;8.20;99.90
6377;DHT22;3221;48.858;10.128;2024-03-23T10:55:19;8.30;99.90
6377;DHT22;3221;48.858;10.128;2024-03-23T10:57:52;8.30;99.90
6377;DHT22;3221;48.858;10.128;2024-03-23T11:00:19;8.50;99.90
6377;DHT22;3221;48.858;10.128;2024-03-23T11:02:48;8.50;99.90
6377;DHT22;3221;48.858;10.128;2024-03-23T11:07:52;8.40;99.90
6377;DHT22;3221;48.858;10.128;2024-03-23T11:10:29;8.70;99.90
6377;DHT22;3221;48.858;10.128;2024-03-23T11:13:21;8.70;99.90
6377;DHT22;3221;48.858;10.128;2024-03-23T11:15:48;8.70;99.90
6377;DHT22;3221;48.858;10.128;2024-03-23T11:18:20;8.60;99.90
6377;DHT22;3221;48.858;10.128;2024-03-23T11:20:47;8.70;99.90
6377;DHT22;3221;48.858;10.128;2024-03-23T11:23:27;8.70;99.90
6377;DHT22;3221;48.858;10.128;2024-03-23T11:25:53;8.90;99.90
6377;DHT22;3221;48.858;10.128;2024-03-23T11:28:19;8.90;99.90
6377;DHT22;3221;48.858;10.128;2024-03-23T11:30:46;8.70;99.90
6377;DHT22;3221;48.858;10.128;2024-03-23T11:33:12;8.70;99.90
6377;DHT22;3221;48.858;10.128;2024-03-23T11:35:39;8.80;99.90
6377;DHT22;3221;48.858;10.128;2024-03-23T11:38:10;8.80;99.90
6377;DHT22;3221;48.858;10.128;2024-03-23T11:43:04;8.60;99.90
6377;DHT22;3221;48.858;10.128;2024-03-23T11:45:35;8.50;99.90
6377;DHT22;3221;48.858;10.128;2024-03-23T11:48:04;8.50;99.90
6377;DHT22;3221;48.858;10.128;2024-03-23T11:50:30;8.30;99.90
6377;DHT22;3221;48.858;10.128;2024-03-23T11:53:09;8.30;99.90
6377;DHT22;3221;48.858;10.128;2024-03-23T11:55:52;8.10;99.90
6377;DHT22;3221;48.858;10.128;2024-03-23T11:58:20;8.20;99.90
6377;DHT22;3221;48.858;10.128;2024-03-23T12:00:56;8.10;99.90
6377;DHT22;3221;48.858;10.128;2024-03-23T12:03:23;8.10;99.90
6377;DHT22;3221;48.858;10.128;2024-03-23T12:05:53;8.10;99.90
6377;DHT22;3221;48.858;10.128;2024-03-23T12:08:24;7.90;99.90
6377;DHT22;3221;48.858;10.128;2024-03-23T12:10:52;7.70;99.90
6377;DHT22;3221;48.858;10.128;2024-03-23T12:13:19;7.70;99.90
6377;DHT22;3221;48.858;10.128;2024-03-23T12:15:49;7.60;99.90
6377;DHT22;3221;48.858;10.128;2024-03-23T12:18:15;7.70;99.90
6377;DHT22;3221;48.858;10.128;2024-03-23T12:20:41;7.60;99.90
6377;DHT22;3221;48.858;10.128;2024-03-23T12:23:13;7.60;99.90
6377;DHT22;3221;48.858;10.128;2024-03-23T12:25:42;7.60;99.90
6377;DHT22;3221;48.858;10.128;2024-03-23T12:28:08;7.80;99.90
6377;DHT22;3221;48.858;10.128;2024-03-23T12:30:40;7.80;99.90
6377;DHT22;3221;48.858;10.128;2024-03-23T12:33:06;7.80;99.90
6377;DHT22;3221;48.858;10.128;2024-03-23T12:35:33;7.80;99.90
6377;DHT22;3221;48.858;10.128;2024-03-23T12:37:59;8.00;99.90
6377;DHT22;3221;48.858;10.128;2024-03-23T12:40:26;7.90;99.90
6377;DHT22;3221;48.858;10.128;2024-03-23T12:42:53;8.00;99.90
6377;DHT22;3221;48.858;10.128;2024-03-23T12:45:19;7.60;99.90
6377;DHT22;3221;48.858;10.128;2024-03-23T12:47:45;7.80;99.90
6377;DHT22;3221;48.858;10.128;2024-03-23T12:50:11;7.90;99.90
6377;DHT22;3221;48.858;10.128;2024-03-23T12:52:37;8.10;99.90
6377;DHT22;3221;48.858;10.128;2024-03-23T12:55:03;8.00;99.90
6377;DHT22;3221;48.858;10.128;2024-03-23T12:57:31;8.00;99.90
6377;DHT22;3221;48.858;10.128;2024-03-23T12:59:58;8.00;99.90
6377;DHT22;3221;48.858;10.128;2024-03-23T13:02:24;8.00;99.90
6377;DHT22;3221;48.858;10.128;2024-03-23T13:04:53;7.90;99.90
6377;DHT22;3221;48.858;10.128;2024-03-23T13:07:20;8.10;99.90
6377;DHT22;3221;48.858;10.128;2024-03-23T13:09:46;8.10;99.90
6377;DHT22;3221;48.858;10.128;2024-03-23T13:12:12;8.10;99.90
6377;DHT22;3221;48.858;10.128;2024-03-23T13:14:39;8.00;99.90
6377;DHT22;3221;48.858;10.128;2024-03-23T13:17:06;8.00;99.90
6377;DHT22;3221;48.858;10.128;2024-03-23T13:19:32;8.10;99.90
6377;DHT22;3221;48.858;10.128;2024-03-23T13:21:59;8.10;99.90
6377;DHT22;3221;48.858;10.128;2024-03-23T13:24:26;8.10;99.90
6377;DHT22;3221;48.858;10.128;2024-03-23T13:26:53;8.20;99.90
6377;DHT22;3221;48.858;10.128;2024-03-23T13:29:19;8.30;99.90
6377;DHT22;3221;48.858;10.128;2024-03-23T13:31:46;8.10;99.90
6377;DHT22;3221;48.858;10.128;2024-03-23T13:34:13;8.20;99.90
6377;DHT22;3221;48.858;10.128;2024-03-23T13:36:42;8.20;99.90
6377;DHT22;3221;48.858;10.128;2024-03-23T13:39:09;8.40;99.90
6377;DHT22;3221;48.858;10.128;2024-03-23T13:41:41;8.30;99.90
6377;DHT22;3221;48.858;10.128;2024-03-23T13:44:07;8.30;99.90
6377;DHT22;3221;48.858;10.128;2024-03-23T13:46:34;8.30;99.90
6377;DHT22;3221;48.858;10.128;2024-03-23T13:49:00;8.30;99.90
6377;DHT22;3221;48.858;10.128;2024-03-23T13:51:27;8.50;99.90
6377;DHT22;3221;48.858;10.128;2024-03-23T13:53:54;8.50;99.90
6377;DHT22;3221;48.858;10.128;2024-03-23T13:56:21;8.60;99.90
6377;DHT22;3221;48.858;10.128;2024-03-23T13:58:47;8.60;99.90
6377;DHT22;3221;48.858;10.128;2024-03-23T14:01:14;8.70;99.90
6377;DHT22;3221;48.858;10.128;2024-03-23T14:03:40;8.90;99.90
6377;DHT22;3221;48.858;10.128;2024-03-23T14:06:07;8.90;99.90
6377;DHT22;3221;48.858;10.128;2024-03-23T14:08:37;8.90;99.90
6377;DHT22;3221;48.858;10.128;2024-03-23T14:11:09;9.00;99.90
6377;DHT22;3221;48.858;10.128;2024-03-23T14:13:35;8.90;99.90
6377;DHT22;3221;48.858;10.128;2024-03-23T14:16:01;9.00;99.90
6377;DHT22;3221;48.858;10.128;2024-03-23T14:18:28;9.00;99.90
6377;DHT22;3221;48.858;10.128;2024-03-23T14:20:58;9.10;99.90
6377;DHT22;3221;48.858;10.128;2024-03-23T14:23:28;9.00;99.90
6377;DHT22;3221;48.858;10.128;2024-03-23T14:25:58;9.20;99.90
6377;DHT22;3221;48.858;10.128;2024-03-23T14:28:24;9.10;99.90
6377;DHT22;3221;48.858;10.128;2024-03-23T14:30:51;9.20;99.90
6377;DHT22;3221;48.858;10.128;2024-03-23T14:33:18;9.00;99.90
6377;DHT22;3221;48.858;10.128;2024-03-23T14:35:54;9.10;99.90
6377;DHT22;3221;48.858;10.128;2024-03-23T14:38:21;8.90;99.90
6377;DHT22;3221;48.858;10.128;2024-03-23T14:40:47;9.10;99.90
6377;DHT22;3221;48.858;10.128;2024-03-23T14:43:13;9.00;99.90
6377;DHT22;3221;48.858;10.128;2024-03-23T14:46:11;9.00;99.90
6377;DHT22;3221;48.858;10.128;2024-03-23T14:48:39;9.00;99.90
6377;DHT22;3221;48.858;10.128;2024-03-23T14:51:06;8.90;99.90
6377;DHT22;3221;48.858;10.128;2024-03-23T14:53:35;9.00;99.90
6377;DHT22;3221;48.858;10.128;2024-03-23T14:56:02;8.90;99.90
6377;DHT22;3221;48.858;10.128;2024-03-23T14:58:29;8.90;99.90
6377;DHT22;3221;48.858;10.128;2024-03-23T15:01:08;8.80;99.90
6377;DHT22;3221;48.858;10.128;2024-03-23T15:03:36;8.50;99.90
6377;DHT22;3221;48.858;10.128;2024-03-23T15:06:02;8.20;99.90
6377;DHT22;3221;48.858;10.128;2024-03-23T15:08:28;7.90;99.90
6377;DHT22;3221;48.858;10.128;2024-03-23T15:10:58;7.80;99.90
6377;DHT22;3221;48.858;10.128;2024-03-23T15:13:24;7.60;99.90
6377;DHT22;3221;48.858;10.128;2024-03-23T15:15:50;7.30;99.90
6377;DHT22;3221;48.858;10.128;2024-03-23T15:18:18;7.00;99.90
6377;DHT22;3221;48.858;10.128;2024-03-23T15:20:59;6.90;99.90
6377;DHT22;3221;48.858;10.128;2024-03-23T15:23:28;6.70;99.90
6377;DHT22;3221;48.858;10.128;2024-03-23T15:25:58;6.60;99.90
6377;DHT22;3221;48.858;10.128;2024-03-23T15:28:25;6.80;99.90
6377;DHT22;3221;48.858;10.128;2024-03-23T15:31:08;6.50;99.90
6377;DHT22;3221;48.858;10.128;2024-03-23T15:33:35;6.40;99.90
6377;DHT22;3221;48.858;10.128;2024-03-23T15:36:05;6.60;99.90
6377;DHT22;3221;48.858;10.128;2024-03-23T15:38:31;6.50;99.90
6377;DHT22;3221;48.858;10.128;2024-03-23T15:40:58;6.70;99.90
6377;DHT22;3221;48.858;10.128;2024-03-23T15:43:24;6.60;99.90
6377;DHT22;3221;48.858;10.128;2024-03-23T15:45:54;6.90;99.90
6377;DHT22;3221;48.858;10.128;2024-03-23T15:48:20;6.70;99.90
6377;DHT22;3221;48.858;10.128;2024-03-23T15:50:51;6.70;99.90
6377;DHT22;3221;48.858;10.128;2024-03-23T15:53:19;6.50;99.90
6377;DHT22;3221;48.858;10.128;2024-03-23T15:55:45;6.50;99.90
6377;DHT22;3221;48.858;10.128;2024-03-23T15:58:11;6.50;99.90
6377;DHT22;3221;48.858;10.128;2024-03-23T16:00:38;6.50;99.90
6377;DHT22;3221;48.858;10.128;2024-03-23T16:03:04;6.50;99.90
6377;DHT22;3221;48.858;10.128;2024-03-23T16:05:29;6.60;99.90
6377;DHT22;3221;48.858;10.128;2024-03-23T16:07:55;6.70;99.90
6377;DHT22;3221;48.858;10.128;2024-03-23T16:10:21;6.50;99.90
6377;DHT22;3221;48.858;10.128;2024-03-23T16:12:47;6.50;99.90
6377;DHT22;3221;48.858;10.128;2024-03-23T16:15:13;6.50;99.90
6377;DHT22;3221;48.858;10.128;2024-03-23T16:17:40;6.40;99.90
6377;DHT22;3221;48.858;10.128;2024-03-23T16:20:07;6.50;99.90
6377;DHT22;3221;48.858;10.128;2024-03-23T16:22:34;6.40;99.90
6377;DHT22;3221;48.858;10.128;2024-03-23T16:25:00;6.50;99.90
6377;DHT22;3221;48.858;10.128;2024-03-23T16:27:26;6.50;99.90
6377;DHT22;3221;48.858;10.128;2024-03-23T16:29:52;6.50;99.90
6377;DHT22;3221;48.858;10.128;2024-03-23T16:32:18;6.50;99.90
6377;DHT22;3221;48.858;10.128;2024-03-23T16:34:44;6.40;99.90
6377;DHT22;3221;48.858;10.128;2024-03-23T16:37:10;6.40;99.90
6377;DHT22;3221;48.858;10.128;2024-03-23T16:39:36;6.50;99.90
6377;DHT22;3221;48.858;10.128;2024-03-23T16:42:02;6.40;99.90
6377;DHT22;3221;48.858;10.128;2024-03-23T16:44:29;6.30;99.90
6377;DHT22;3221;48.858;10.128;2024-03-23T16:46:55;6.40;99.90
6377;DHT22;3221;48.858;10.128;2024-03-23T16:49:21;6.40;99.90
6377;DHT22;3221;48.858;10.128;2024-03-23T16:51:47;6.40;99.90
6377;DHT22;3221;48.858;10.128;2024-03-23T16:54:13;6.30;99.90
6377;DHT22;3221;48.858;10.128;2024-03-23T16:56:39;6.20;99.90
6377;DHT22;3221;48.858;10.128;2024-03-23T16:59:05;6.40;99.90
6377;DHT22;3221;48.858;10.128;2024-03-23T17:01:31;6.30;99.90
6377;DHT22;3221;48.858;10.128;2024-03-23T17:03:56;6.20;99.90